Time;durP1;ratioP1;P1;durP2;ratioP2;P2;SDS_P1;SDS_P2;PMS_P1;PMS_P2;Temp;Humidity;BMP_temperature;BMP_pressure;BME280_temperature;BME280_humidity;BME280_pressure;Samples;Min_cycle;Max_cycle;Signal;HPM_P1;HPM_P2
2022/07/17 00:01:28;;;;;;;3.25;1.30;;;19.70;69.40;;;;;;5055363;28;20029;-65
2022/07/17 00:03:54;;;;;;;1.58;1.10;;;19.60;69.50;;;;;;5055219;28;20066;-67
2022/07/17 00:06:19;;;;;;;2.90;1.60;;;19.60;69.50;;;;;;5055385;28;20389;-67
2022/07/17 00:08:46;;;;;;;1.67;1.20;;;19.60;69.80;;;;;;5053767;28;20021;-67
2022/07/17 00:11:11;;;;;;;5.07;1.67;;;19.50;69.80;;;;;;5055709;28;20029;-67
2022/07/17 00:13:37;;;;;;;2.22;1.13;;;19.50;70.20;;;;;;5055457;28;20029;-67
2022/07/17 00:16:03;;;;;;;3.72;1.65;;;19.40;70.30;;;;;;5055804;28;20064;-67
2022/07/17 00:18:28;;;;;;;5.22;1.38;;;19.40;70.50;;;;;;5054069;28;20473;-65
2022/07/17 00:20:54;;;;;;;3.53;1.27;;;19.30;70.60;;;;;;5055852;28;20037;-66
2022/07/17 00:23:19;;;;;;;15.30;3.70;;;19.30;70.70;;;;;;5055320;28;20086;-66
2022/07/17 00:25:46;;;;;;;2.20;1.58;;;19.30;70.60;;;;;;5055209;28;20025;-66
2022/07/17 00:28:12;;;;;;;3.20;1.85;;;19.30;70.70;;;;;;5054954;28;20025;-66
2022/07/17 00:30:38;;;;;;;3.95;1.70;;;19.30;70.80;;;;;;5054951;28;20055;-67
2022/07/17 00:33:03;;;;;;;2.35;1.30;;;19.30;70.80;;;;;;5054977;28;20482;-66
2022/07/17 00:35:29;;;;;;;3.25;1.40;;;19.40;70.80;;;;;;5055383;28;20036;-66
2022/07/17 00:37:55;;;;;;;4.80;1.48;;;19.40;71.50;;;;;;5058680;28;20037;-65
2022/07/17 00:40:23;;;;;;;1.73;1.40;;;19.40;70.70;;;;;;5054133;28;20044;-66
2022/07/17 00:42:50;;;;;;;2.08;1.10;;;19.40;70.80;;;;;;5054084;28;20029;-65
2022/07/17 00:45:16;;;;;;;5.57;1.60;;;19.40;70.90;;;;;;5054915;28;20013;-66
2022/07/17 00:48:10;;;;;;;2.53;1.40;;;19.30;71.20;;;;;;5056208;28;20024;-66
2022/07/17 00:50:40;;;;;;;3.10;1.70;;;19.20;71.50;;;;;;5052147;28;20112;-66
2022/07/17 00:53:07;;;;;;;2.80;1.40;;;19.20;71.90;;;;;;5054298;28;20079;-67
2022/07/17 00:55:33;;;;;;;2.42;1.40;;;19.20;72.00;;;;;;5054375;28;20091;-67
2022/07/17 00:58:03;;;;;;;3.35;1.40;;;19.10;72.10;;;;;;5054657;28;20449;-66
2022/07/17 01:00:29;;;;;;;2.75;1.65;;;19.10;72.20;;;;;;5054157;28;20086;-66
2022/07/17 01:02:55;;;;;;;4.72;1.98;;;19.10;72.40;;;;;;5051881;28;20025;-65
2022/07/17 01:05:22;;;;;;;2.92;1.55;;;19.10;72.70;;;;;;5054022;28;20074;-66
2022/07/17 01:07:49;;;;;;;3.20;1.52;;;19.00;72.70;;;;;;5054134;28;20021;-66
2022/07/17 01:10:16;;;;;;;2.08;1.50;;;19.00;73.50;;;;;;5054085;28;20048;-66
2022/07/17 01:12:42;;;;;;;2.88;1.50;;;19.10;72.90;;;;;;5054256;28;20040;-66
2022/07/17 01:15:09;;;;;;;;;;;19.10;72.90;;;;;;5053196;28;20036;-66
2022/07/17 01:17:35;;;;;;;2.83;1.70;;;19.10;73.30;;;;;;5054215;28;19904;-67
2022/07/17 01:20:03;;;;;;;2.72;1.65;;;19.00;73.90;;;;;;5054262;28;20025;-66
2022/07/17 01:22:28;;;;;;;3.10;1.50;;;19.00;74.40;;;;;;5054101;28;20075;-61
2022/07/17 01:24:54;;;;;;;3.90;1.50;;;18.90;74.80;;;;;;5054554;28;20486;-61
2022/07/17 01:27:20;;;;;;;4.10;2.05;;;18.90;75.20;;;;;;5052457;28;20032;-61
2022/07/17 01:29:45;;;;;;;3.53;1.80;;;18.80;75.60;;;;;;5053664;28;20041;-61
2022/07/17 01:32:11;;;;;;;2.88;1.60;;;18.80;75.90;;;;;;5053851;28;20037;-61
2022/07/17 01:34:36;;;;;;;2.72;1.70;;;18.80;75.80;;;;;;5053571;28;20029;-61
2022/07/17 01:37:02;;;;;;;4.22;1.77;;;18.70;75.80;;;;;;5053658;28;20054;-61
2022/07/17 01:42:12;;;;;;;4.32;1.77;;;18.70;75.80;;;;;;5053589;28;20044;-62
2022/07/17 01:44:37;;;;;;;2.22;1.60;;;18.60;75.60;;;;;;5053776;28;20021;-62
2022/07/17 01:47:04;;;;;;;2.42;1.48;;;18.60;75.40;;;;;;5053955;28;20041;-62
2022/07/17 01:49:29;;;;;;;;;;;18.60;75.30;;;;;;5054906;28;20025;-60
2022/07/17 01:51:59;;;;;;;2.42;1.50;;;18.60;75.20;;;;;;5054009;28;20214;-60
2022/07/17 01:54:26;;;;;;;2.00;1.40;;;18.60;75.10;;;;;;5052206;28;20032;-61
2022/07/17 01:56:51;;;;;;;3.83;1.45;;;18.70;75.10;;;;;;5054410;28;20017;-62
2022/07/17 01:59:17;;;;;;;4.35;1.58;;;18.60;75.10;;;;;;5053275;28;20052;-61
2022/07/17 02:01:42;;;;;;;3.03;1.55;;;18.60;75.70;;;;;;5054018;28;20040;-62
2022/07/17 02:04:08;;;;;;;3.30;1.70;;;18.50;75.40;;;;;;5051944;28;20028;-62
2022/07/17 02:06:33;;;;;;;3.47;1.75;;;18.30;76.00;;;;;;5059077;28;20033;-60
2022/07/17 02:08:59;;;;;;;2.38;1.50;;;18.10;76.80;;;;;;5060533;28;20061;-59
2022/07/17 02:11:25;;;;;;;4.25;1.85;;;17.90;77.60;;;;;;5054404;28;20029;-63
2022/07/17 02:13:50;;;;;;;6.47;1.77;;;17.70;78.30;;;;;;5053521;28;20053;-61
2022/07/17 02:16:16;;;;;;;2.87;1.60;;;17.60;78.80;;;;;;5053407;28;20029;-62
2022/07/17 02:18:41;;;;;;;5.35;2.33;;;17.50;79.30;;;;;;5052855;28;20282;-62
2022/07/17 02:21:07;;;;;;;2.80;1.88;;;17.50;79.60;;;;;;5054694;28;20114;-60
2022/07/17 02:23:33;;;;;;;6.30;1.83;;;17.40;80.10;;;;;;5054223;28;20496;-63
2022/07/17 02:25:58;;;;;;;5.87;1.50;;;17.30;80.70;;;;;;5053565;28;20032;-62
2022/07/17 02:28:24;;;;;;;3.43;1.70;;;17.20;81.10;;;;;;5054826;28;20264;-63
2022/07/17 02:30:49;;;;;;;4.25;1.95;;;17.10;82.00;;;;;;5056421;28;20290;-62
2022/07/17 02:33:15;;;;;;;4.68;1.90;;;17.10;83.60;;;;;;5055991;28;20036;-62
2022/07/17 02:35:40;;;;;;;6.33;1.90;;;17.10;84.60;;;;;;5055890;28;20083;-62
2022/07/17 02:38:06;;;;;;;3.17;2.27;;;17.10;85.60;;;;;;5057104;28;20271;-62
2022/07/17 02:40:32;;;;;;;3.08;1.83;;;17.00;86.50;;;;;;5053063;28;20315;-62
2022/07/17 02:42:58;;;;;;;9.85;1.95;;;17.00;86.90;;;;;;5051661;28;20025;-62
2022/07/17 02:45:24;;;;;;;5.40;2.55;;;17.00;87.60;;;;;;5052863;28;20044;-62
2022/07/17 02:47:51;;;;;;;4.57;1.90;;;17.00;88.00;;;;;;5053019;28;20529;-63
2022/07/17 02:50:17;;;;;;;3.05;1.80;;;17.00;88.30;;;;;;5052811;28;20056;-62
2022/07/17 02:52:43;;;;;;;5.25;2.10;;;17.10;88.80;;;;;;5052963;28;20064;-62
2022/07/17 02:55:10;;;;;;;4.57;2.13;;;17.10;88.80;;;;;;5051366;28;20035;-62
2022/07/17 02:57:37;;;;;;;4.00;2.00;;;17.00;89.70;;;;;;5052848;28;20021;-62
2022/07/17 03:00:08;;;;;;;4.65;2.35;;;17.00;90.10;;;;;;5052469;28;20072;-62
2022/07/17 03:02:33;;;;;;;4.57;2.40;;;16.80;90.40;;;;;;5052768;28;20020;-60
2022/07/17 03:04:59;;;;;;;5.90;2.05;;;16.70;90.60;;;;;;5054935;28;20025;-61
2022/07/17 03:07:25;;;;;;;3.70;2.10;;;16.60;90.80;;;;;;5059903;28;20124;-60
2022/07/17 03:09:50;;;;;;;5.68;2.08;;;16.50;91.10;;;;;;5060060;28;20103;-62
2022/07/17 03:12:16;;;;;;;2.92;2.10;;;16.40;91.20;;;;;;5052848;28;20100;-61
2022/07/17 03:14:41;;;;;;;3.30;2.10;;;16.40;91.30;;;;;;5052554;28;20059;-61
2022/07/17 03:17:07;;;;;;;4.03;2.03;;;16.40;91.40;;;;;;5053001;28;20303;-59
2022/07/17 03:19:34;;;;;;;4.07;2.50;;;16.30;91.60;;;;;;5052899;28;20053;-61
2022/07/17 03:22:00;;;;;;;5.20;2.50;;;16.20;92.00;;;;;;5052957;28;20041;-62
2022/07/17 03:24:25;;;;;;;3.50;2.07;;;16.10;92.20;;;;;;5052720;28;20027;-61
2022/07/17 03:26:51;;;;;;;4.60;2.27;;;16.10;92.60;;;;;;5056415;28;20375;-60
2022/07/17 03:29:17;;;;;;;2.90;2.42;;;16.00;92.90;;;;;;5056147;28;20274;-61
2022/07/17 03:31:46;;;;;;;12.40;2.85;;;16.00;93.10;;;;;;5054690;28;20052;-60
2022/07/17 03:34:11;;;;;;;3.38;2.22;;;15.90;93.40;;;;;;5054561;28;20033;-61
2022/07/17 03:36:37;;;;;;;3.75;2.50;;;15.70;93.60;;;;;;5055829;28;20501;-61
2022/07/17 03:39:03;;;;;;;3.00;2.10;;;15.70;94.00;;;;;;5055642;28;20183;-60
2022/07/17 03:41:28;;;;;;;3.22;2.40;;;15.60;94.20;;;;;;5056214;28;20032;-61
2022/07/17 03:43:54;;;;;;;7.07;1.97;;;15.60;94.30;;;;;;5056782;28;20025;-62
2022/07/17 03:46:20;;;;;;;2.63;2.20;;;15.50;94.50;;;;;;5057850;28;20017;-61
2022/07/17 03:48:46;;;;;;;4.22;2.80;;;15.40;94.80;;;;;;5058065;28;20256;-60
2022/07/17 03:51:11;;;;;;;3.58;2.60;;;15.40;94.90;;;;;;5058659;28;20059;-60
2022/07/17 03:53:37;;;;;;;4.63;2.20;;;15.40;95.00;;;;;;5056510;28;20017;-60
2022/07/17 03:56:04;;;;;;;4.20;2.93;;;15.30;95.20;;;;;;5055489;28;20766;-59
2022/07/17 03:58:30;;;;;;;3.10;2.10;;;15.20;95.40;;;;;;5055564;28;20389;-60
2022/07/17 04:00:56;;;;;;;6.63;2.60;;;15.30;95.60;;;;;;5055382;28;20020;-60
2022/07/17 04:03:21;;;;;;;4.85;2.30;;;15.30;95.70;;;;;;5055650;28;20033;-58
2022/07/17 04:05:47;;;;;;;3.47;2.60;;;15.20;95.90;;;;;;5055925;28;20358;-61
2022/07/17 04:08:15;;;;;;;3.60;2.33;;;15.20;96.00;;;;;;5055388;28;20303;-62
2022/07/17 04:10:41;;;;;;;4.07;2.50;;;15.10;96.20;;;;;;5055996;28;20494;-62
2022/07/17 04:13:06;;;;;;;4.63;2.38;;;15.00;96.40;;;;;;5057701;28;20042;-60
2022/07/17 04:15:52;;;;;;;5.10;2.60;;;15.00;96.60;;;;;;5056722;28;20045;-60
2022/07/17 04:18:23;;;;;;;3.40;2.33;;;14.90;96.70;;;;;;5055732;28;20263;-61
2022/07/17 04:20:50;;;;;;;4.10;2.45;;;14.90;96.90;;;;;;5055374;28;20024;-59
2022/07/17 04:23:16;;;;;;;3.92;2.33;;;14.90;97.00;;;;;;5055498;28;20035;-60
2022/07/17 04:25:42;;;;;;;3.03;2.28;;;14.90;97.00;;;;;;5054978;28;20021;-62
2022/07/17 04:28:08;;;;;;;3.97;2.22;;;14.90;97.10;;;;;;5055259;28;20017;-61
2022/07/17 04:30:34;;;;;;;4.60;2.25;;;14.80;97.20;;;;;;5055367;28;20061;-62
2022/07/17 04:32:59;;;;;;;2.78;2.33;;;14.90;97.30;;;;;;5055566;28;20025;-60
2022/07/17 04:35:25;;;;;;;6.77;2.37;;;14.90;97.40;;;;;;5055054;28;20036;-61
2022/07/17 04:37:50;;;;;;;8.33;2.70;;;14.90;97.30;;;;;;5054452;28;20083;-61
2022/07/17 04:40:16;;;;;;;5.27;2.37;;;14.90;97.40;;;;;;5054587;28;20043;-60
2022/07/17 04:42:41;;;;;;;5.15;2.45;;;15.00;97.20;;;;;;5054601;28;20037;-61
2022/07/17 04:45:07;;;;;;;3.43;2.23;;;15.10;97.20;;;;;;5054784;28;20028;-62
2022/07/17 04:47:34;;;;;;;3.10;2.30;;;15.10;97.00;;;;;;5058088;28;20813;-61
2022/07/17 04:50:00;;;;;;;4.32;2.47;;;15.10;97.00;;;;;;5058100;28;20489;-62
2022/07/17 04:52:25;;;;;;;3.53;2.23;;;15.20;96.90;;;;;;5056443;28;20036;-62
2022/07/17 04:54:51;;;;;;;3.30;1.87;;;15.20;96.90;;;;;;5056152;28;20274;-61
2022/07/17 04:57:16;;;;;;;3.43;2.10;;;15.30;96.70;;;;;;5054350;28;20043;-61
2022/07/17 04:59:42;;;;;;;4.90;2.03;;;15.40;96.30;;;;;;5054291;28;20454;-62
2022/07/17 05:02:08;;;;;;;2.42;2.00;;;15.50;96.00;;;;;;5054069;28;20262;-61
2022/07/17 05:04:34;;;;;;;2.60;1.65;;;15.70;95.70;;;;;;5054097;28;20028;-62
2022/07/17 05:06:59;;;;;;;4.70;2.10;;;15.80;95.30;;;;;;5053993;28;20490;-61
2022/07/17 05:09:25;;;;;;;3.80;1.70;;;15.90;95.10;;;;;;5054201;28;20041;-62
2022/07/17 05:11:51;;;;;;;2.60;1.63;;;15.90;94.80;;;;;;5054441;28;20520;-61
2022/07/17 05:14:16;;;;;;;4.13;1.90;;;16.00;94.70;;;;;;5054543;28;20271;-62
2022/07/17 05:16:42;;;;;;;2.37;1.83;;;16.10;94.60;;;;;;5053984;28;20124;-61
2022/07/17 05:19:08;;;;;;;3.63;1.98;;;16.10;94.40;;;;;;5054131;28;20124;-61
2022/07/17 05:21:33;;;;;;;3.50;1.83;;;16.20;94.50;;;;;;5053977;28;20035;-61
2022/07/17 05:23:59;;;;;;;10.85;2.40;;;16.30;94.40;;;;;;5054203;28;20737;-61
2022/07/17 05:26:25;;;;;;;4.35;2.00;;;16.40;94.10;;;;;;5053753;28;20056;-61
2022/07/17 05:28:50;;;;;;;2.38;1.70;;;16.50;93.80;;;;;;5054390;28;20107;-62
2022/07/17 05:31:16;;;;;;;6.03;2.13;;;16.60;93.50;;;;;;5053760;28;20087;-61
2022/07/17 05:33:41;;;;;;;3.38;1.58;;;16.70;93.30;;;;;;5053887;28;20044;-60
2022/07/17 05:36:08;;;;;;;2.80;1.75;;;16.70;92.80;;;;;;5053554;28;20024;-60
2022/07/17 05:38:34;;;;;;;2.78;1.42;;;16.80;92.40;;;;;;5053897;28;20017;-61
2022/07/17 05:40:59;;;;;;;3.25;1.50;;;16.90;92.30;;;;;;5054244;28;20032;-60
2022/07/17 05:43:25;;;;;;;1.58;1.15;;;16.90;91.80;;;;;;5054286;28;20032;-61
2022/07/17 05:45:54;;;;;;;2.83;1.90;;;17.00;91.90;;;;;;5054365;28;20025;-61
2022/07/17 05:48:20;;;;;;;3.55;1.58;;;17.00;91.30;;;;;;5052919;28;20267;-62
2022/07/17 05:50:45;;;;;;;2.55;1.55;;;17.00;90.90;;;;;;5053488;28;20474;-62
2022/07/17 05:53:11;;;;;;;6.90;1.73;;;17.10;90.50;;;;;;5053797;28;20116;-61
2022/07/17 05:55:36;;;;;;;3.17;1.70;;;17.10;90.30;;;;;;5054635;28;20263;-62
2022/07/17 05:58:02;;;;;;;1.40;1.30;;;17.20;90.40;;;;;;5054481;28;20033;-61
2022/07/17 06:00:29;;;;;;;4.55;1.40;;;17.30;90.20;;;;;;5054353;28;20048;-62
2022/07/17 06:02:54;;;;;;;2.95;1.55;;;17.30;89.70;;;;;;5057225;28;20052;-60
2022/07/17 06:05:20;;;;;;;2.47;1.45;;;17.30;89.00;;;;;;5056865;28;20028;-61
2022/07/17 06:07:45;;;;;;;4.78;1.30;;;17.40;88.50;;;;;;5057384;28;20025;-61
2022/07/17 06:10:11;;;;;;;4.80;1.40;;;17.40;88.20;;;;;;5055954;28;20109;-61
2022/07/17 06:12:37;;;;;;;3.13;1.30;;;17.50;88.40;;;;;;5055744;28;20712;-61
2022/07/17 06:15:03;;;;;;;3.65;1.35;;;17.50;87.30;;;;;;5055671;28;20040;-64
2022/07/17 06:17:28;;;;;;;2.75;1.50;;;17.80;90.10;;;;;;5054846;28;20489;-64
2022/07/17 06:19:54;;;;;;;3.00;1.50;;;18.10;89.10;;;;;;5053929;28;20117;-62
2022/07/17 06:22:21;;;;;;;3.40;1.63;;;18.50;85.60;;;;;;5055293;28;20040;-61
2022/07/17 06:24:50;;;;;;;3.00;1.33;;;18.60;84.80;;;;;;5056179;28;20063;-64
2022/07/17 06:27:16;;;;;;;4.10;1.20;;;18.60;83.30;;;;;;5058106;28;20026;-63
2022/07/17 06:29:41;;;;;;;2.65;1.40;;;18.50;83.60;;;;;;5056260;28;20467;-64
2022/07/17 06:32:07;;;;;;;2.13;1.05;;;18.40;83.20;;;;;;5055003;28;20040;-63
2022/07/17 06:34:32;;;;;;;2.92;1.40;;;18.40;83.30;;;;;;5053531;28;20047;-64
2022/07/17 06:36:58;;;;;;;4.28;2.10;;;18.50;83.30;;;;;;5053262;28;20029;-64
2022/07/17 06:39:23;;;;;;;1.97;1.30;;;18.70;83.80;;;;;;5051469;28;20053;-66
2022/07/17 06:41:49;;;;;;;2.37;1.20;;;18.80;81.80;;;;;;5053156;28;20340;-64
2022/07/17 06:44:14;;;;;;;7.40;2.47;;;18.80;81.70;;;;;;5051948;28;20356;-64
2022/07/17 06:46:40;;;;;;;6.80;1.48;;;18.80;81.50;;;;;;5053051;28;20314;-64
2022/07/17 06:49:06;;;;;;;2.80;1.13;;;18.90;81.50;;;;;;5052503;28;20557;-64
2022/07/17 06:51:31;;;;;;;4.85;1.05;;;18.90;80.80;;;;;;5052884;28;20522;-64
2022/07/17 06:53:57;;;;;;;1.85;1.20;;;19.00;80.80;;;;;;5053018;28;20447;-64
2022/07/17 06:56:23;;;;;;;2.30;1.10;;;19.00;80.30;;;;;;5052645;28;20028;-64
2022/07/17 06:58:49;;;;;;;2.40;1.30;;;19.20;80.00;;;;;;5052586;28;20036;-64
2022/07/17 07:01:14;;;;;;;4.07;1.30;;;19.30;79.30;;;;;;5056472;28;20072;-64
2022/07/17 07:03:40;;;;;;;6.95;1.20;;;19.30;79.40;;;;;;5056937;28;20462;-64
2022/07/17 07:06:06;;;;;;;;;;;19.40;79.30;;;;;;5055707;28;20103;-63
2022/07/17 07:08:33;;;;;;;4.13;1.30;;;19.60;79.10;;;;;;5056922;28;19951;-62
2022/07/17 07:11:00;;;;;;;3.35;1.10;;;19.70;78.20;;;;;;5056377;28;20047;-64
2022/07/17 07:13:25;;;;;;;4.53;1.58;;;19.90;77.40;;;;;;5056250;28;20033;-63
2022/07/17 07:15:51;;;;;;;3.90;1.20;;;20.00;76.70;;;;;;5056048;28;20036;-65
2022/07/17 07:18:17;;;;;;;2.60;1.20;;;20.10;76.00;;;;;;5056175;28;20033;-63
2022/07/17 07:20:42;;;;;;;3.55;1.63;;;20.30;75.60;;;;;;5055939;28;20033;-64
2022/07/17 07:23:08;;;;;;;2.63;1.27;;;20.40;75.70;;;;;;5055954;28;20029;-63
2022/07/17 07:25:34;;;;;;;3.67;1.35;;;20.50;74.80;;;;;;5056167;28;20025;-63
2022/07/17 07:27:59;;;;;;;2.72;1.17;;;20.60;74.50;;;;;;5056023;28;20025;-64
2022/07/17 07:30:26;;;;;;;2.58;1.25;;;20.60;74.90;;;;;;5055117;28;20505;-64
2022/07/17 07:32:52;;;;;;;1.85;1.20;;;20.60;74.30;;;;;;5056368;28;20056;-64
2022/07/17 07:35:17;;;;;;;1.40;0.95;;;20.70;74.30;;;;;;5056002;28;20032;-64
2022/07/17 07:37:43;;;;;;;4.18;1.40;;;20.90;73.10;;;;;;5054515;28;20369;-63
2022/07/17 07:40:09;;;;;;;6.88;1.17;;;20.90;73.30;;;;;;5055692;28;20056;-63
2022/07/17 07:42:35;;;;;;;3.03;1.67;;;21.00;73.40;;;;;;5055707;28;20028;-64
2022/07/17 07:45:00;;;;;;;2.80;1.20;;;21.10;72.60;;;;;;5055960;28;20028;-64
2022/07/17 07:47:26;;;;;;;2.08;1.30;;;21.30;72.10;;;;;;5055816;28;20470;-64
2022/07/17 07:49:51;;;;;;;3.25;1.17;;;21.40;71.20;;;;;;5054179;28;20116;-63
2022/07/17 07:52:17;;;;;;;2.33;1.30;;;21.50;71.90;;;;;;5054535;28;20087;-62
2022/07/17 07:54:43;;;;;;;5.15;1.38;;;21.60;71.10;;;;;;5054474;28;20025;-65
2022/07/17 07:57:08;;;;;;;1.98;1.25;;;21.80;72.90;;;;;;5055273;28;20033;-63
2022/07/17 07:59:34;;;;;;;3.00;1.35;;;21.90;70.20;;;;;;5054997;28;20432;-62
2022/07/17 08:02:00;;;;;;;3.25;1.30;;;21.90;71.00;;;;;;5055706;28;20106;-64
2022/07/17 08:04:26;;;;;;;3.15;1.40;;;22.20;70.90;;;;;;5055210;28;20017;-61
2022/07/17 08:06:53;;;;;;;5.95;1.15;;;22.30;70.00;;;;;;5055255;28;20017;-63
2022/07/17 08:09:19;;;;;;;3.60;1.38;;;22.50;68.60;;;;;;5054980;28;20509;-63
2022/07/17 08:11:44;;;;;;;1.67;1.20;;;22.50;68.70;;;;;;5054562;28;20033;-63
2022/07/17 08:14:10;;;;;;;2.78;1.15;;;22.60;68.20;;;;;;5055239;28;20041;-62
2022/07/17 08:16:35;;;;;;;2.22;1.33;;;23.10;67.60;;;;;;5054762;28;20028;-63
2022/07/17 08:19:02;;;;;;;;;;;24.60;64.70;;;;;;5055256;28;20036;-64
2022/07/17 08:21:28;;;;;;;3.70;1.20;;;26.80;61.40;;;;;;5054635;28;19905;-64
2022/07/17 08:23:53;;;;;;;3.65;1.73;;;28.40;58.60;;;;;;5054682;28;20075;-64
2022/07/17 08:26:19;;;;;;;3.22;1.30;;;29.40;56.00;;;;;;5054733;28;20029;-64
2022/07/17 08:28:45;;;;;;;5.18;1.50;;;29.30;55.60;;;;;;5054640;28;20082;-65
2022/07/17 08:31:10;;;;;;;3.47;1.75;;;30.00;54.60;;;;;;5054502;28;20473;-63
2022/07/17 08:33:36;;;;;;;3.95;1.30;;;30.20;54.00;;;;;;5054443;28;20087;-63
2022/07/17 08:36:01;;;;;;;3.08;1.40;;;30.50;54.00;;;;;;5053085;28;20027;-65
2022/07/17 08:38:27;;;;;;;3.13;1.30;;;32.20;52.90;;;;;;5054305;28;20382;-63
2022/07/17 08:40:54;;;;;;;4.13;1.17;;;33.30;51.00;;;;;;5054176;28;20057;-64
2022/07/17 08:43:20;;;;;;;2.80;1.00;;;33.10;50.00;;;;;;5052879;28;20074;-63
2022/07/17 08:45:48;;;;;;;3.72;1.42;;;32.70;50.50;;;;;;5054389;28;20107;-63
2022/07/17 08:48:15;;;;;;;3.33;1.15;;;34.70;50.00;;;;;;5054243;28;20040;-64
2022/07/17 08:50:42;;;;;;;1.98;1.40;;;36.50;48.40;;;;;;5054611;28;20342;-63
2022/07/17 08:53:08;;;;;;;3.75;1.13;;;37.70;46.20;;;;;;5054777;28;20043;-63
2022/07/17 08:55:34;;;;;;;2.63;1.20;;;37.00;45.80;;;;;;5054386;28;20025;-61
2022/07/17 08:58:00;;;;;;;2.22;1.10;;;36.20;46.00;;;;;;5053526;28;20044;-64
2022/07/17 09:00:27;;;;;;;3.30;1.00;;;35.60;46.80;;;;;;5053894;28;20038;-64
2022/07/17 09:03:03;;;;;;;2.70;1.05;;;36.20;46.10;;;;;;5053957;28;20029;-64
2022/07/17 09:05:36;;;;;;;4.07;1.25;;;36.50;46.00;;;;;;5054430;28;20057;-65
2022/07/17 09:08:03;;;;;;;2.47;1.20;;;36.60;46.00;;;;;;5054200;28;20052;-66
2022/07/17 09:10:41;;;;;;;4.80;1.15;;;37.20;45.30;;;;;;5053717;28;20036;-64
2022/07/17 09:13:32;;;;;;;4.30;1.33;;;37.40;45.40;;;;;;5053777;28;20112;-65
2022/07/17 09:16:05;;;;;;;4.32;2.20;;;38.10;44.80;;;;;;5050671;28;20350;-65
2022/07/17 09:18:31;;;;;;;1.25;1.13;;;37.00;44.80;;;;;;5053836;28;20515;-65
2022/07/17 09:20:58;;;;;;;2.88;1.08;;;37.10;45.10;;;;;;5053879;28;20033;-65
2022/07/17 09:23:26;;;;;;;4.25;1.17;;;38.30;44.50;;;;;;5053275;28;20064;-64
2022/07/17 09:25:54;;;;;;;2.00;1.10;;;37.00;44.80;;;;;;5054102;28;20135;-65
2022/07/17 09:28:20;;;;;;;1.20;0.93;;;37.90;44.30;;;;;;5053592;28;20037;-64
2022/07/17 09:30:49;;;;;;;4.10;1.40;;;38.30;43.70;;;;;;5053391;28;20075;-64
2022/07/17 09:33:18;;;;;;;1.63;1.20;;;38.80;43.40;;;;;;5053821;28;20021;-65
2022/07/17 09:36:05;;;;;;;2.55;1.10;;;38.20;43.10;;;;;;5053175;28;20017;-65
2022/07/17 09:38:37;;;;;;;1.92;1.30;;;37.90;43.20;;;;;;5053422;28;20078;-64
2022/07/17 09:41:18;;;;;;;3.45;1.10;;;36.90;43.50;;;;;;5053170;28;20067;-64
2022/07/17 09:43:50;;;;;;;2.90;1.13;;;37.40;43.90;;;;;;5053073;28;20021;-65
2022/07/17 09:46:30;;;;;;;1.50;1.10;;;38.00;43.30;;;;;;5053886;28;20044;-65
2022/07/17 09:49:00;;;;;;;1.17;0.88;;;37.50;43.50;;;;;;5053574;28;20024;-65
2022/07/17 09:51:38;;;;;;;2.95;1.00;;;37.10;43.30;;;;;;5053445;28;20071;-65
2022/07/17 09:54:05;;;;;;;1.73;1.27;;;36.60;43.80;;;;;;5054105;28;20123;-65
2022/07/17 09:56:36;;;;;;;2.38;1.38;;;34.60;45.10;;;;;;5053902;28;20040;-64
2022/07/17 09:59:10;;;;;;;3.00;1.00;;;35.80;45.00;;;;;;5053141;28;20432;-65
2022/07/17 10:01:38;;;;;;;1.70;0.95;;;36.40;44.10;;;;;;5051919;28;20167;-61
2022/07/17 10:04:04;;;;;;;2.85;1.10;;;35.40;44.30;;;;;;5053128;28;20423;-62
2022/07/17 10:06:30;;;;;;;1.25;0.98;;;34.80;44.50;;;;;;5053235;28;20036;-65
2022/07/17 10:08:55;;;;;;;1.90;1.20;;;34.70;44.70;;;;;;5058642;28;20037;-67
2022/07/17 10:11:30;;;;;;;2.60;1.05;;;34.60;44.70;;;;;;5058464;28;20029;-66
2022/07/17 10:14:00;;;;;;;3.00;1.08;;;35.20;44.80;;;;;;5058595;28;20032;-66
2022/07/17 10:16:31;;;;;;;1.60;1.10;;;36.80;44.10;;;;;;5061360;28;20045;-66
2022/07/17 10:18:59;;;;;;;1.75;1.33;;;37.50;43.10;;;;;;5056455;28;20025;-67
2022/07/17 10:21:28;;;;;;;2.65;1.20;;;38.10;42.40;;;;;;5056761;28;20104;-68
2022/07/17 10:23:53;;;;;;;1.92;1.60;;;38.80;42.50;;;;;;5053499;28;20412;-67
2022/07/17 10:26:55;;;;;;;2.15;0.90;;;39.50;42.00;;;;;;5053747;28;20021;-66
2022/07/17 10:29:38;;;;;;;1.80;1.40;;;37.90;41.00;;;;;;4991958;28;20031;-66
2022/07/17 10:32:13;;;;;;;2.67;1.17;;;38.80;41.00;;;;;;4992165;28;20034;-64
2022/07/17 10:35:09;;;;;;;2.13;1.10;;;38.50;40.60;;;;;;4993368;28;20452;-64
2022/07/17 10:37:37;;;;;;;1.63;1.08;;;39.80;40.40;;;;;;4919179;29;20045;-64
2022/07/17 10:40:16;;;;;;;3.33;1.10;;;39.60;40.80;;;;;;4918524;29;20074;-64
2022/07/17 10:42:59;;;;;;;1.15;1.00;;;39.00;40.40;;;;;;4918925;29;20040;-63
2022/07/17 10:45:32;;;;;;;0.80;0.80;;;38.20;40.40;;;;;;4903109;29;20486;-61
2022/07/17 10:48:07;;;;;;;1.00;0.85;;;36.90;40.90;;;;;;4918735;29;20100;-62
2022/07/17 10:50:42;;;;;;;1.75;0.90;;;35.50;41.90;;;;;;4918875;29;20044;-62
2022/07/17 10:53:25;;;;;;;3.00;1.10;;;35.80;42.60;;;;;;4918804;29;20036;-61
2022/07/17 10:56:03;;;;;;;3.10;1.13;;;37.10;42.00;;;;;;4919505;29;20035;-62
2022/07/17 10:58:32;;;;;;;1.58;1.00;;;37.50;40.90;;;;;;4919032;29;20116;-63
2022/07/17 11:01:12;;;;;;;2.72;1.15;;;37.50;40.80;;;;;;4918727;29;20032;-63
2022/07/17 11:03:44;;;;;;;1.85;1.02;;;38.10;40.50;;;;;;4955598;28;20031;-62
2022/07/17 11:06:14;;;;;;;2.10;1.30;;;38.30;40.20;;;;;;4976763;28;20481;-62
2022/07/17 11:09:00;;;;;;;1.85;1.33;;;38.60;39.80;;;;;;4975649;28;20038;-62
2022/07/17 11:11:39;;;;;;;2.50;1.55;;;38.60;39.80;;;;;;4976238;28;20030;-60
2022/07/17 11:14:08;;;;;;;1.52;1.15;;;38.40;39.40;;;;;;5021313;28;20112;-61
2022/07/17 11:16:34;;;;;;;1.30;1.10;;;37.80;39.60;;;;;;5056964;28;20017;-60
2022/07/17 11:19:00;;;;;;;6.60;1.30;;;35.70;40.60;;;;;;5055054;28;20040;-60
2022/07/17 11:21:25;;;;;;;2.33;1.05;;;33.70;42.40;;;;;;5056405;28;20460;-61
2022/07/17 11:23:54;;;;;;;1.92;1.10;;;32.40;43.70;;;;;;5056464;28;20029;-63
2022/07/17 11:26:20;;;;;;;2.45;1.10;;;31.30;44.10;;;;;;5056482;28;20041;-62
2022/07/17 11:28:47;;;;;;;2.25;1.00;;;30.20;44.80;;;;;;5056295;28;20029;-60
2022/07/17 11:31:18;;;;;;;3.35;2.03;;;29.60;45.10;;;;;;5055212;28;20116;-60
2022/07/17 11:33:48;;;;;;;1.55;1.05;;;29.20;45.60;;;;;;5055048;28;20032;-61
2022/07/17 11:36:20;;;;;;;2.45;1.42;;;29.10;45.80;;;;;;5056844;28;20103;-62
2022/07/17 11:38:46;;;;;;;1.10;0.90;;;28.90;45.50;;;;;;5056535;28;20029;-63
2022/07/17 11:41:11;;;;;;;2.53;1.00;;;28.70;46.00;;;;;;5056338;28;20036;-61
2022/07/17 11:43:40;;;;;;;1.45;1.00;;;28.50;46.40;;;;;;5056241;28;20536;-60
2022/07/17 11:46:07;;;;;;;3.33;1.50;;;28.60;46.30;;;;;;5055406;28;20489;-62
2022/07/17 11:48:32;;;;;;;3.00;1.40;;;28.80;45.20;;;;;;5056104;28;20044;-61
2022/07/17 11:50:58;;;;;;;2.38;1.30;;;29.00;45.50;;;;;;5056197;28;20029;-63
2022/07/17 11:53:35;;;;;;;1.17;0.90;;;29.20;45.70;;;;;;5055569;28;20021;-61
2022/07/17 11:56:01;;;;;;;2.90;0.90;;;29.10;45.30;;;;;;5055986;28;20048;-63
2022/07/17 11:58:28;;;;;;;2.83;0.90;;;28.90;45.10;;;;;;5055158;28;20151;-61
2022/07/17 12:01:04;;;;;;;2.15;1.00;;;28.70;45.60;;;;;;5055747;28;20036;-62
2022/07/17 12:03:30;;;;;;;1.50;1.08;;;28.50;46.20;;;;;;5055837;28;20160;-61
2022/07/17 12:05:55;;;;;;;1.73;1.00;;;28.50;46.00;;;;;;5055569;28;20492;-61
2022/07/17 12:08:21;;;;;;;1.33;1.02;;;28.60;45.30;;;;;;5055875;28;20029;-62
2022/07/17 12:10:47;;;;;;;3.20;1.65;;;28.70;44.80;;;;;;5055057;28;20032;-61
2022/07/17 12:13:14;;;;;;;2.33;1.00;;;28.70;44.30;;;;;;5055305;28;20040;-62
2022/07/17 12:15:45;;;;;;;1.80;0.95;;;28.70;44.40;;;;;;5055511;28;20021;-62
2022/07/17 12:18:29;;;;;;;1.80;1.00;;;28.60;44.50;;;;;;5055461;28;20051;-61
2022/07/17 12:21:05;;;;;;;2.65;1.40;;;28.70;43.60;;;;;;5055014;28;20028;-60
2022/07/17 12:23:36;;;;;;;1.73;1.13;;;28.90;43.40;;;;;;5055059;28;20025;-62
2022/07/17 12:26:08;;;;;;;1.52;0.95;;;28.90;42.50;;;;;;5055209;28;20017;-60
2022/07/17 12:28:34;;;;;;;2.17;1.10;;;28.80;43.00;;;;;;5054722;28;20059;-61
2022/07/17 12:31:00;;;;;;;2.50;1.10;;;28.80;44.30;;;;;;5055408;28;20029;-61
2022/07/17 12:33:26;;;;;;;2.58;0.93;;;28.80;44.70;;;;;;5054807;28;20025;-61
2022/07/17 12:35:52;;;;;;;1.48;0.90;;;28.70;44.40;;;;;;5055313;28;20044;-60
2022/07/17 12:38:17;;;;;;;3.00;1.42;;;28.70;44.20;;;;;;5054796;28;20021;-63
2022/07/17 12:40:43;;;;;;;1.73;1.15;;;28.90;44.80;;;;;;5054475;28;20028;-61
2022/07/17 12:43:09;;;;;;;3.13;1.02;;;28.90;44.80;;;;;;5054623;28;20029;-58
2022/07/17 12:45:34;;;;;;;2.58;1.20;;;28.70;44.70;;;;;;5054900;28;20021;-62
2022/07/17 12:48:00;;;;;;;3.35;2.50;;;28.80;44.60;;;;;;5055513;28;20040;-62
2022/07/17 12:50:26;;;;;;;2.63;1.27;;;28.90;44.40;;;;;;5054531;28;20021;-61
2022/07/17 12:52:51;;;;;;;3.63;1.23;;;28.90;44.00;;;;;;5054851;28;20020;-63